sensor_id;sensor_type;location;lat;lon;timestamp;P1;durP1;ratioP1;P2;durP2;ratioP2
49412;SDS011;35493;50.276;9.372;2023-05-21T00:01:46;17.48;;;12.45;;
49412;SDS011;35493;50.276;9.372;2023-05-21T00:04:13;19.75;;;13.48;;
49412;SDS011;35493;50.276;9.372;2023-05-21T00:06:41;17.10;;;13.25;;
49412;SDS011;35493;50.276;9.372;2023-05-21T00:09:08;16.50;;;12.48;;
49412;SDS011;35493;50.276;9.372;2023-05-21T00:11:38;16.17;;;12.30;;
49412;SDS011;35493;50.276;9.372;2023-05-21T00:14:05;18.30;;;13.38;;
49412;SDS011;35493;50.276;9.372;2023-05-21T00:16:32;18.73;;;13.98;;
49412;SDS011;35493;50.276;9.372;2023-05-21T00:18:58;18.45;;;13.75;;
49412;SDS011;35493;50.276;9.372;2023-05-21T00:21:26;17.48;;;12.52;;
49412;SDS011;35493;50.276;9.372;2023-05-21T00:23:53;16.85;;;12.63;;
49412;SDS011;35493;50.276;9.372;2023-05-21T00:26:21;18.13;;;13.25;;
49412;SDS011;35493;50.276;9.372;2023-05-21T00:28:54;18.52;;;12.63;;
49412;SDS011;35493;50.276;9.372;2023-05-21T00:31:20;18.48;;;13.45;;
49412;SDS011;35493;50.276;9.372;2023-05-21T00:33:47;15.43;;;12.43;;
49412;SDS011;35493;50.276;9.372;2023-05-21T00:36:14;19.50;;;13.77;;
49412;SDS011;35493;50.276;9.372;2023-05-21T00:38:42;19.08;;;13.85;;
49412;SDS011;35493;50.276;9.372;2023-05-21T00:41:09;18.60;;;13.02;;
49412;SDS011;35493;50.276;9.372;2023-05-21T00:43:36;16.15;;;12.18;;
49412;SDS011;35493;50.276;9.372;2023-05-21T00:46:06;16.95;;;13.32;;
49412;SDS011;35493;50.276;9.372;2023-05-21T00:48:36;16.90;;;12.82;;
49412;SDS011;35493;50.276;9.372;2023-05-21T00:51:03;17.45;;;12.88;;
49412;SDS011;35493;50.276;9.372;2023-05-21T00:53:31;17.10;;;12.73;;
49412;SDS011;35493;50.276;9.372;2023-05-21T00:55:59;17.50;;;13.20;;
49412;SDS011;35493;50.276;9.372;2023-05-21T00:58:26;19.10;;;13.50;;
49412;SDS011;35493;50.276;9.372;2023-05-21T01:00:53;16.00;;;12.40;;
49412;SDS011;35493;50.276;9.372;2023-05-21T01:03:22;16.73;;;12.80;;
49412;SDS011;35493;50.276;9.372;2023-05-21T01:05:50;18.98;;;13.05;;
49412;SDS011;35493;50.276;9.372;2023-05-21T01:08:17;18.33;;;13.70;;
49412;SDS011;35493;50.276;9.372;2023-05-21T01:10:44;16.92;;;13.25;;
49412;SDS011;35493;50.276;9.372;2023-05-21T01:13:11;19.45;;;13.68;;
49412;SDS011;35493;50.276;9.372;2023-05-21T01:15:40;16.83;;;12.45;;
49412;SDS011;35493;50.276;9.372;2023-05-21T01:18:08;18.02;;;12.93;;
49412;SDS011;35493;50.276;9.372;2023-05-21T01:20:37;17.35;;;13.07;;
49412;SDS011;35493;50.276;9.372;2023-05-21T01:23:07;16.45;;;12.77;;
49412;SDS011;35493;50.276;9.372;2023-05-21T01:25:34;16.00;;;12.63;;
49412;SDS011;35493;50.276;9.372;2023-05-21T01:28:01;17.25;;;12.82;;
49412;SDS011;35493;50.276;9.372;2023-05-21T01:30:28;17.83;;;13.27;;
49412;SDS011;35493;50.276;9.372;2023-05-21T01:33:00;17.58;;;12.90;;
49412;SDS011;35493;50.276;9.372;2023-05-21T01:35:30;19.15;;;13.57;;
49412;SDS011;35493;50.276;9.372;2023-05-21T01:38:02;17.27;;;12.90;;
49412;SDS011;35493;50.276;9.372;2023-05-21T01:40:38;19.50;;;14.05;;
49412;SDS011;35493;50.276;9.372;2023-05-21T01:43:10;17.30;;;13.07;;
49412;SDS011;35493;50.276;9.372;2023-05-21T01:45:39;18.73;;;13.95;;
49412;SDS011;35493;50.276;9.372;2023-05-21T01:48:08;19.15;;;14.05;;
49412;SDS011;35493;50.276;9.372;2023-05-21T01:50:36;20.35;;;13.18;;
49412;SDS011;35493;50.276;9.372;2023-05-21T01:53:05;18.95;;;13.18;;
49412;SDS011;35493;50.276;9.372;2023-05-21T01:55:32;18.48;;;13.80;;
49412;SDS011;35493;50.276;9.372;2023-05-21T01:58:04;18.75;;;13.82;;
49412;SDS011;35493;50.276;9.372;2023-05-21T02:00:31;21.15;;;13.20;;
49412;SDS011;35493;50.276;9.372;2023-05-21T02:02:59;18.95;;;12.88;;
49412;SDS011;35493;50.276;9.372;2023-05-21T02:05:26;17.60;;;13.35;;
49412;SDS011;35493;50.276;9.372;2023-05-21T02:07:53;18.98;;;13.32;;
49412;SDS011;35493;50.276;9.372;2023-05-21T02:10:19;16.88;;;12.73;;
49412;SDS011;35493;50.276;9.372;2023-05-21T02:12:46;17.50;;;13.30;;
49412;SDS011;35493;50.276;9.372;2023-05-21T02:15:15;16.15;;;12.70;;
49412;SDS011;35493;50.276;9.372;2023-05-21T02:17:43;17.33;;;13.45;;
49412;SDS011;35493;50.276;9.372;2023-05-21T02:20:11;18.20;;;12.98;;
49412;SDS011;35493;50.276;9.372;2023-05-21T02:22:39;17.48;;;14.02;;
49412;SDS011;35493;50.276;9.372;2023-05-21T02:25:07;20.27;;;13.48;;
49412;SDS011;35493;50.276;9.372;2023-05-21T02:27:35;20.48;;;13.73;;
49412;SDS011;35493;50.276;9.372;2023-05-21T02:30:03;17.77;;;13.68;;
49412;SDS011;35493;50.276;9.372;2023-05-21T02:32:33;18.35;;;13.88;;
49412;SDS011;35493;50.276;9.372;2023-05-21T02:35:00;17.65;;;12.73;;
49412;SDS011;35493;50.276;9.372;2023-05-21T02:37:28;17.63;;;13.82;;
49412;SDS011;35493;50.276;9.372;2023-05-21T02:39:58;17.90;;;13.38;;
49412;SDS011;35493;50.276;9.372;2023-05-21T02:42:25;17.77;;;13.20;;
49412;SDS011;35493;50.276;9.372;2023-05-21T02:44:52;20.17;;;14.30;;
49412;SDS011;35493;50.276;9.372;2023-05-21T02:47:20;19.83;;;14.02;;
49412;SDS011;35493;50.276;9.372;2023-05-21T02:49:49;18.13;;;13.75;;
49412;SDS011;35493;50.276;9.372;2023-05-21T02:52:17;17.40;;;13.20;;
49412;SDS011;35493;50.276;9.372;2023-05-21T02:54:44;17.45;;;14.07;;
49412;SDS011;35493;50.276;9.372;2023-05-21T02:57:12;18.70;;;13.13;;
49412;SDS011;35493;50.276;9.372;2023-05-21T02:59:39;18.15;;;13.13;;
49412;SDS011;35493;50.276;9.372;2023-05-21T03:02:06;18.33;;;13.68;;
49412;SDS011;35493;50.276;9.372;2023-05-21T03:04:33;18.00;;;13.40;;
49412;SDS011;35493;50.276;9.372;2023-05-21T03:07:04;17.08;;;13.40;;
49412;SDS011;35493;50.276;9.372;2023-05-21T03:09:31;17.85;;;13.50;;
49412;SDS011;35493;50.276;9.372;2023-05-21T03:11:58;18.38;;;13.20;;
49412;SDS011;35493;50.276;9.372;2023-05-21T03:14:25;17.15;;;13.57;;
49412;SDS011;35493;50.276;9.372;2023-05-21T03:16:53;20.50;;;14.77;;
49412;SDS011;35493;50.276;9.372;2023-05-21T03:19:20;19.77;;;14.13;;
49412;SDS011;35493;50.276;9.372;2023-05-21T03:21:46;18.23;;;14.10;;
49412;SDS011;35493;50.276;9.372;2023-05-21T03:24:16;17.45;;;13.50;;
49412;SDS011;35493;50.276;9.372;2023-05-21T03:26:43;21.00;;;14.07;;
49412;SDS011;35493;50.276;9.372;2023-05-21T03:29:14;20.15;;;14.45;;
49412;SDS011;35493;50.276;9.372;2023-05-21T03:31:43;20.63;;;14.73;;
49412;SDS011;35493;50.276;9.372;2023-05-21T03:34:11;18.55;;;14.50;;
49412;SDS011;35493;50.276;9.372;2023-05-21T03:36:39;19.73;;;14.45;;
49412;SDS011;35493;50.276;9.372;2023-05-21T03:39:06;18.45;;;14.30;;
49412;SDS011;35493;50.276;9.372;2023-05-21T03:41:34;18.73;;;13.88;;
49412;SDS011;35493;50.276;9.372;2023-05-21T03:44:08;18.08;;;13.75;;
49412;SDS011;35493;50.276;9.372;2023-05-21T03:46:45;19.77;;;13.93;;
49412;SDS011;35493;50.276;9.372;2023-05-21T03:49:24;19.10;;;14.15;;
49412;SDS011;35493;50.276;9.372;2023-05-21T03:51:53;19.42;;;13.15;;
49412;SDS011;35493;50.276;9.372;2023-05-21T03:54:21;19.83;;;14.70;;
49412;SDS011;35493;50.276;9.372;2023-05-21T03:56:53;17.02;;;13.65;;
49412;SDS011;35493;50.276;9.372;2023-05-21T03:59:22;18.85;;;13.70;;
49412;SDS011;35493;50.276;9.372;2023-05-21T04:01:50;19.27;;;14.18;;
49412;SDS011;35493;50.276;9.372;2023-05-21T04:04:17;22.73;;;14.55;;
49412;SDS011;35493;50.276;9.372;2023-05-21T04:06:44;20.20;;;13.90;;
49412;SDS011;35493;50.276;9.372;2023-05-21T04:09:11;18.27;;;13.70;;
49412;SDS011;35493;50.276;9.372;2023-05-21T04:11:38;19.65;;;13.75;;
49412;SDS011;35493;50.276;9.372;2023-05-21T04:14:07;19.33;;;14.35;;
49412;SDS011;35493;50.276;9.372;2023-05-21T04:16:33;18.08;;;13.70;;
49412;SDS011;35493;50.276;9.372;2023-05-21T04:19:02;18.58;;;13.80;;
49412;SDS011;35493;50.276;9.372;2023-05-21T04:21:29;20.25;;;14.15;;
49412;SDS011;35493;50.276;9.372;2023-05-21T04:23:56;18.95;;;13.68;;
49412;SDS011;35493;50.276;9.372;2023-05-21T04:26:47;20.25;;;14.10;;
49412;SDS011;35493;50.276;9.372;2023-05-21T04:29:15;18.27;;;13.80;;
49412;SDS011;35493;50.276;9.372;2023-05-21T04:31:46;20.67;;;14.38;;
49412;SDS011;35493;50.276;9.372;2023-05-21T04:34:14;20.77;;;14.30;;
49412;SDS011;35493;50.276;9.372;2023-05-21T04:36:43;18.25;;;13.80;;
49412;SDS011;35493;50.276;9.372;2023-05-21T04:39:11;18.42;;;13.68;;
49412;SDS011;35493;50.276;9.372;2023-05-21T04:41:39;16.80;;;13.60;;
49412;SDS011;35493;50.276;9.372;2023-05-21T04:44:06;20.80;;;14.70;;
49412;SDS011;35493;50.276;9.372;2023-05-21T04:46:35;18.50;;;13.27;;
49412;SDS011;35493;50.276;9.372;2023-05-21T04:49:02;17.52;;;13.13;;
49412;SDS011;35493;50.276;9.372;2023-05-21T04:51:29;20.38;;;14.20;;
49412;SDS011;35493;50.276;9.372;2023-05-21T04:53:56;17.23;;;12.68;;
49412;SDS011;35493;50.276;9.372;2023-05-21T04:56:23;20.13;;;13.75;;
49412;SDS011;35493;50.276;9.372;2023-05-21T04:58:51;19.65;;;13.85;;
49412;SDS011;35493;50.276;9.372;2023-05-21T05:01:18;19.58;;;13.75;;
49412;SDS011;35493;50.276;9.372;2023-05-21T05:03:48;17.42;;;13.65;;
49412;SDS011;35493;50.276;9.372;2023-05-21T05:06:16;18.88;;;14.20;;
49412;SDS011;35493;50.276;9.372;2023-05-21T05:08:43;20.75;;;14.50;;
49412;SDS011;35493;50.276;9.372;2023-05-21T05:11:11;20.90;;;15.30;;
49412;SDS011;35493;50.276;9.372;2023-05-21T05:13:38;18.50;;;13.88;;
49412;SDS011;35493;50.276;9.372;2023-05-21T05:16:07;18.63;;;13.68;;
49412;SDS011;35493;50.276;9.372;2023-05-21T05:18:34;19.40;;;13.20;;
49412;SDS011;35493;50.276;9.372;2023-05-21T05:21:02;19.00;;;14.35;;
49412;SDS011;35493;50.276;9.372;2023-05-21T05:23:30;17.55;;;12.82;;
49412;SDS011;35493;50.276;9.372;2023-05-21T05:25:57;16.70;;;13.60;;
49412;SDS011;35493;50.276;9.372;2023-05-21T05:28:24;19.40;;;14.15;;
49412;SDS011;35493;50.276;9.372;2023-05-21T05:30:51;18.27;;;13.45;;
49412;SDS011;35493;50.276;9.372;2023-05-21T05:33:22;18.63;;;14.18;;
49412;SDS011;35493;50.276;9.372;2023-05-21T05:35:49;19.48;;;13.70;;
49412;SDS011;35493;50.276;9.372;2023-05-21T05:38:17;18.83;;;13.80;;
49412;SDS011;35493;50.276;9.372;2023-05-21T05:40:45;18.13;;;14.52;;
49412;SDS011;35493;50.276;9.372;2023-05-21T05:43:12;17.23;;;13.30;;
49412;SDS011;35493;50.276;9.372;2023-05-21T05:45:39;21.38;;;14.23;;
49412;SDS011;35493;50.276;9.372;2023-05-21T05:48:11;17.27;;;13.50;;
49412;SDS011;35493;50.276;9.372;2023-05-21T05:50:38;19.90;;;13.48;;
49412;SDS011;35493;50.276;9.372;2023-05-21T05:53:05;19.13;;;13.93;;
49412;SDS011;35493;50.276;9.372;2023-05-21T05:55:33;18.25;;;13.40;;
49412;SDS011;35493;50.276;9.372;2023-05-21T05:58:01;21.38;;;14.07;;
49412;SDS011;35493;50.276;9.372;2023-05-21T06:00:28;19.25;;;14.00;;
49412;SDS011;35493;50.276;9.372;2023-05-21T06:02:58;19.83;;;13.60;;
49412;SDS011;35493;50.276;9.372;2023-05-21T06:05:25;19.90;;;13.98;;
49412;SDS011;35493;50.276;9.372;2023-05-21T06:07:52;17.65;;;13.25;;
49412;SDS011;35493;50.276;9.372;2023-05-21T06:10:19;20.42;;;15.15;;
49412;SDS011;35493;50.276;9.372;2023-05-21T06:12:47;17.05;;;13.50;;
49412;SDS011;35493;50.276;9.372;2023-05-21T06:15:15;18.50;;;14.52;;
49412;SDS011;35493;50.276;9.372;2023-05-21T06:17:43;18.83;;;14.48;;
49412;SDS011;35493;50.276;9.372;2023-05-21T06:20:11;18.23;;;13.77;;
49412;SDS011;35493;50.276;9.372;2023-05-21T06:22:38;19.10;;;15.35;;
49412;SDS011;35493;50.276;9.372;2023-05-21T06:25:07;20.13;;;14.98;;
49412;SDS011;35493;50.276;9.372;2023-05-21T06:27:35;18.60;;;13.48;;
49412;SDS011;35493;50.276;9.372;2023-05-21T06:30:09;19.45;;;14.73;;
49412;SDS011;35493;50.276;9.372;2023-05-21T06:32:36;19.75;;;15.30;;
49412;SDS011;35493;50.276;9.372;2023-05-21T06:35:03;21.45;;;14.82;;
49412;SDS011;35493;50.276;9.372;2023-05-21T06:37:31;16.80;;;13.80;;
49412;SDS011;35493;50.276;9.372;2023-05-21T06:39:58;19.73;;;14.25;;
49412;SDS011;35493;50.276;9.372;2023-05-21T06:42:25;18.60;;;14.30;;
49412;SDS011;35493;50.276;9.372;2023-05-21T06:45:13;17.17;;;14.20;;
49412;SDS011;35493;50.276;9.372;2023-05-21T06:47:42;18.20;;;14.63;;
49412;SDS011;35493;50.276;9.372;2023-05-21T06:50:10;18.25;;;14.00;;
49412;SDS011;35493;50.276;9.372;2023-05-21T06:52:37;18.55;;;13.95;;
49412;SDS011;35493;50.276;9.372;2023-05-21T06:55:05;20.48;;;14.35;;
49412;SDS011;35493;50.276;9.372;2023-05-21T06:57:52;18.23;;;13.52;;
49412;SDS011;35493;50.276;9.372;2023-05-21T07:00:21;17.95;;;13.93;;
49412;SDS011;35493;50.276;9.372;2023-05-21T07:02:48;17.20;;;13.93;;
49412;SDS011;35493;50.276;9.372;2023-05-21T07:05:15;17.42;;;13.60;;
49412;SDS011;35493;50.276;9.372;2023-05-21T07:07:42;17.30;;;13.88;;
49412;SDS011;35493;50.276;9.372;2023-05-21T07:10:09;15.95;;;13.30;;
49412;SDS011;35493;50.276;9.372;2023-05-21T07:12:37;17.83;;;13.00;;
49412;SDS011;35493;50.276;9.372;2023-05-21T07:15:05;16.52;;;13.35;;
49412;SDS011;35493;50.276;9.372;2023-05-21T07:17:35;18.33;;;13.90;;
49412;SDS011;35493;50.276;9.372;2023-05-21T07:20:03;16.90;;;13.38;;
49412;SDS011;35493;50.276;9.372;2023-05-21T07:22:32;15.70;;;12.95;;
49412;SDS011;35493;50.276;9.372;2023-05-21T07:24:59;15.95;;;12.27;;
49412;SDS011;35493;50.276;9.372;2023-05-21T07:27:26;16.85;;;13.40;;
49412;SDS011;35493;50.276;9.372;2023-05-21T07:29:53;16.02;;;12.60;;
49412;SDS011;35493;50.276;9.372;2023-05-21T07:32:21;15.43;;;12.57;;
49412;SDS011;35493;50.276;9.372;2023-05-21T07:34:49;14.60;;;12.80;;
49412;SDS011;35493;50.276;9.372;2023-05-21T07:39:45;17.98;;;12.55;;
49412;SDS011;35493;50.276;9.372;2023-05-21T07:42:12;15.60;;;12.38;;
49412;SDS011;35493;50.276;9.372;2023-05-21T07:44:39;16.52;;;12.90;;
49412;SDS011;35493;50.276;9.372;2023-05-21T07:47:06;15.32;;;12.43;;
49412;SDS011;35493;50.276;9.372;2023-05-21T07:49:33;15.60;;;11.95;;
49412;SDS011;35493;50.276;9.372;2023-05-21T07:52:02;13.50;;;11.65;;
49412;SDS011;35493;50.276;9.372;2023-05-21T07:54:30;15.32;;;12.38;;
49412;SDS011;35493;50.276;9.372;2023-05-21T07:56:57;15.40;;;12.02;;
49412;SDS011;35493;50.276;9.372;2023-05-21T07:59:44;14.20;;;11.57;;
49412;SDS011;35493;50.276;9.372;2023-05-21T08:02:11;14.15;;;11.48;;
49412;SDS011;35493;50.276;9.372;2023-05-21T08:04:39;14.75;;;11.63;;
49412;SDS011;35493;50.276;9.372;2023-05-21T08:07:08;13.90;;;11.20;;
49412;SDS011;35493;50.276;9.372;2023-05-21T08:09:35;14.60;;;11.02;;
49412;SDS011;35493;50.276;9.372;2023-05-21T08:12:02;14.30;;;10.73;;
49412;SDS011;35493;50.276;9.372;2023-05-21T08:14:29;14.73;;;11.50;;
49412;SDS011;35493;50.276;9.372;2023-05-21T08:16:56;12.43;;;10.93;;
49412;SDS011;35493;50.276;9.372;2023-05-21T08:19:23;14.00;;;10.20;;
49412;SDS011;35493;50.276;9.372;2023-05-21T08:21:50;13.32;;;9.90;;
49412;SDS011;35493;50.276;9.372;2023-05-21T08:24:18;11.93;;;10.38;;
49412;SDS011;35493;50.276;9.372;2023-05-21T08:26:45;11.82;;;9.32;;
49412;SDS011;35493;50.276;9.372;2023-05-21T08:29:13;11.65;;;9.85;;
49412;SDS011;35493;50.276;9.372;2023-05-21T08:31:45;13.88;;;9.60;;
49412;SDS011;35493;50.276;9.372;2023-05-21T08:34:12;14.32;;;9.55;;
49412;SDS011;35493;50.276;9.372;2023-05-21T08:36:46;12.05;;;9.40;;
49412;SDS011;35493;50.276;9.372;2023-05-21T08:39:33;10.48;;;9.25;;
49412;SDS011;35493;50.276;9.372;2023-05-21T08:42:03;10.73;;;8.80;;
49412;SDS011;35493;50.276;9.372;2023-05-21T08:44:36;11.65;;;9.40;;
49412;SDS011;35493;50.276;9.372;2023-05-21T08:47:06;9.55;;;7.93;;
49412;SDS011;35493;50.276;9.372;2023-05-21T08:49:35;13.27;;;9.25;;
49412;SDS011;35493;50.276;9.372;2023-05-21T08:52:02;11.20;;;8.70;;
49412;SDS011;35493;50.276;9.372;2023-05-21T08:54:31;13.68;;;7.90;;
49412;SDS011;35493;50.276;9.372;2023-05-21T08:57:01;10.48;;;8.07;;
49412;SDS011;35493;50.276;9.372;2023-05-21T08:59:29;10.07;;;7.40;;
49412;SDS011;35493;50.276;9.372;2023-05-21T09:01:56;9.88;;;7.95;;
49412;SDS011;35493;50.276;9.372;2023-05-21T09:04:31;10.25;;;8.13;;
49412;SDS011;35493;50.276;9.372;2023-05-21T09:06:58;10.48;;;8.25;;
49412;SDS011;35493;50.276;9.372;2023-05-21T09:09:52;10.45;;;7.45;;
49412;SDS011;35493;50.276;9.372;2023-05-21T09:12:22;9.70;;;7.15;;
49412;SDS011;35493;50.276;9.372;2023-05-21T09:14:49;10.98;;;7.78;;
49412;SDS011;35493;50.276;9.372;2023-05-21T09:17:19;11.27;;;8.40;;
49412;SDS011;35493;50.276;9.372;2023-05-21T09:20:07;10.40;;;8.07;;
49412;SDS011;35493;50.276;9.372;2023-05-21T09:25:08;8.38;;;7.03;;
49412;SDS011;35493;50.276;9.372;2023-05-21T09:27:36;11.30;;;7.82;;
49412;SDS011;35493;50.276;9.372;2023-05-21T09:30:04;9.68;;;7.30;;
49412;SDS011;35493;50.276;9.372;2023-05-21T09:32:35;10.65;;;7.32;;
49412;SDS011;35493;50.276;9.372;2023-05-21T09:35:06;9.93;;;7.18;;
49412;SDS011;35493;50.276;9.372;2023-05-21T09:37:38;10.02;;;7.60;;
49412;SDS011;35493;50.276;9.372;2023-05-21T09:40:13;12.30;;;9.02;;
49412;SDS011;35493;50.276;9.372;2023-05-21T09:42:44;12.98;;;9.30;;
49412;SDS011;35493;50.276;9.372;2023-05-21T09:45:16;12.50;;;9.30;;
49412;SDS011;35493;50.276;9.372;2023-05-21T09:47:44;11.82;;;8.52;;
49412;SDS011;35493;50.276;9.372;2023-05-21T09:50:11;14.18;;;9.05;;
49412;SDS011;35493;50.276;9.372;2023-05-21T09:52:43;14.40;;;10.07;;
49412;SDS011;35493;50.276;9.372;2023-05-21T09:55:10;14.57;;;10.30;;
49412;SDS011;35493;50.276;9.372;2023-05-21T09:57:43;13.90;;;10.27;;
49412;SDS011;35493;50.276;9.372;2023-05-21T10:00:16;18.30;;;13.43;;
49412;SDS011;35493;50.276;9.372;2023-05-21T10:02:45;19.40;;;14.38;;
49412;SDS011;35493;50.276;9.372;2023-05-21T10:05:13;26.30;;;20.63;;
49412;SDS011;35493;50.276;9.372;2023-05-21T10:07:43;19.43;;;15.33;;
49412;SDS011;35493;50.276;9.372;2023-05-21T10:10:13;18.05;;;14.02;;
49412;SDS011;35493;50.276;9.372;2023-05-21T10:12:43;16.17;;;13.20;;
49412;SDS011;35493;50.276;9.372;2023-05-21T10:15:12;20.65;;;15.95;;
49412;SDS011;35493;50.276;9.372;2023-05-21T10:17:47;19.67;;;14.52;;
49412;SDS011;35493;50.276;9.372;2023-05-21T10:20:15;18.60;;;14.85;;
49412;SDS011;35493;50.276;9.372;2023-05-21T10:22:42;19.65;;;13.48;;
49412;SDS011;35493;50.276;9.372;2023-05-21T10:25:11;17.25;;;11.57;;
49412;SDS011;35493;50.276;9.372;2023-05-21T10:27:38;13.73;;;10.88;;
49412;SDS011;35493;50.276;9.372;2023-05-21T10:30:08;12.65;;;9.75;;
49412;SDS011;35493;50.276;9.372;2023-05-21T10:32:36;14.32;;;10.30;;
49412;SDS011;35493;50.276;9.372;2023-05-21T10:35:05;18.17;;;12.93;;
49412;SDS011;35493;50.276;9.372;2023-05-21T10:37:34;16.17;;;12.65;;
49412;SDS011;35493;50.276;9.372;2023-05-21T10:40:01;15.73;;;10.80;;
49412;SDS011;35493;50.276;9.372;2023-05-21T10:42:42;14.57;;;11.25;;
49412;SDS011;35493;50.276;9.372;2023-05-21T10:45:29;16.05;;;10.98;;
49412;SDS011;35493;50.276;9.372;2023-05-21T10:48:05;14.30;;;9.80;;
49412;SDS011;35493;50.276;9.372;2023-05-21T10:50:47;14.32;;;10.10;;
49412;SDS011;35493;50.276;9.372;2023-05-21T10:53:28;12.45;;;9.18;;
49412;SDS011;35493;50.276;9.372;2023-05-21T10:56:05;12.82;;;9.25;;
49412;SDS011;35493;50.276;9.372;2023-05-21T10:58:47;10.90;;;8.85;;
49412;SDS011;35493;50.276;9.372;2023-05-21T11:01:27;12.02;;;9.10;;
49412;SDS011;35493;50.276;9.372;2023-05-21T11:03:57;11.88;;;9.43;;
49412;SDS011;35493;50.276;9.372;2023-05-21T11:06:25;13.27;;;9.65;;
49412;SDS011;35493;50.276;9.372;2023-05-21T11:08:52;14.52;;;10.60;;
49412;SDS011;35493;50.276;9.372;2023-05-21T11:16:53;15.48;;;11.60;;
49412;SDS011;35493;50.276;9.372;2023-05-21T11:19:21;17.00;;;13.52;;
49412;SDS011;35493;50.276;9.372;2023-05-21T11:21:57;18.23;;;13.15;;
49412;SDS011;35493;50.276;9.372;2023-05-21T11:24:24;16.13;;;12.52;;
49412;SDS011;35493;50.276;9.372;2023-05-21T11:26:58;17.48;;;12.23;;
49412;SDS011;35493;50.276;9.372;2023-05-21T11:29:40;13.30;;;10.25;;
49412;SDS011;35493;50.276;9.372;2023-05-21T11:32:11;12.83;;;10.43;;
49412;SDS011;35493;50.276;9.372;2023-05-21T11:34:39;13.60;;;9.82;;
49412;SDS011;35493;50.276;9.372;2023-05-21T11:37:21;10.63;;;9.13;;
49412;SDS011;35493;50.276;9.372;2023-05-21T11:42:49;10.27;;;8.75;;
49412;SDS011;35493;50.276;9.372;2023-05-21T11:45:17;10.75;;;8.85;;
49412;SDS011;35493;50.276;9.372;2023-05-21T11:47:46;9.30;;;7.72;;
49412;SDS011;35493;50.276;9.372;2023-05-21T11:50:14;9.32;;;7.43;;
49412;SDS011;35493;50.276;9.372;2023-05-21T11:52:41;9.70;;;7.75;;
49412;SDS011;35493;50.276;9.372;2023-05-21T11:55:09;10.02;;;7.45;;
49412;SDS011;35493;50.276;9.372;2023-05-21T11:57:36;9.88;;;7.13;;
49412;SDS011;35493;50.276;9.372;2023-05-21T12:00:12;10.43;;;6.95;;
49412;SDS011;35493;50.276;9.372;2023-05-21T12:02:46;10.07;;;7.32;;
49412;SDS011;35493;50.276;9.372;2023-05-21T12:05:16;9.25;;;7.18;;
49412;SDS011;35493;50.276;9.372;2023-05-21T12:07:45;9.57;;;6.75;;
49412;SDS011;35493;50.276;9.372;2023-05-21T12:10:14;9.27;;;7.22;;
49412;SDS011;35493;50.276;9.372;2023-05-21T12:12:40;9.10;;;6.75;;
49412;SDS011;35493;50.276;9.372;2023-05-21T12:15:08;7.80;;;6.53;;
49412;SDS011;35493;50.276;9.372;2023-05-21T12:17:37;8.52;;;7.32;;
49412;SDS011;35493;50.276;9.372;2023-05-21T12:20:06;8.95;;;7.28;;
49412;SDS011;35493;50.276;9.372;2023-05-21T12:22:34;9.73;;;7.38;;
49412;SDS011;35493;50.276;9.372;2023-05-21T12:25:07;9.55;;;6.97;;
49412;SDS011;35493;50.276;9.372;2023-05-21T12:27:36;10.25;;;6.70;;
49412;SDS011;35493;50.276;9.372;2023-05-21T12:30:03;9.57;;;7.65;;
49412;SDS011;35493;50.276;9.372;2023-05-21T12:32:32;9.30;;;7.15;;
49412;SDS011;35493;50.276;9.372;2023-05-21T12:34:59;9.38;;;7.35;;
49412;SDS011;35493;50.276;9.372;2023-05-21T12:37:28;10.85;;;7.70;;
49412;SDS011;35493;50.276;9.372;2023-05-21T12:39:57;9.10;;;6.60;;
49412;SDS011;35493;50.276;9.372;2023-05-21T12:42:25;10.18;;;8.10;;
49412;SDS011;35493;50.276;9.372;2023-05-21T12:44:54;9.43;;;7.57;;
49412;SDS011;35493;50.276;9.372;2023-05-21T12:47:21;11.45;;;7.18;;
49412;SDS011;35493;50.276;9.372;2023-05-21T12:52:20;9.02;;;6.68;;
49412;SDS011;35493;50.276;9.372;2023-05-21T12:54:49;8.07;;;6.75;;
49412;SDS011;35493;50.276;9.372;2023-05-21T12:57:17;9.20;;;6.80;;
49412;SDS011;35493;50.276;9.372;2023-05-21T12:59:48;9.65;;;7.07;;
49412;SDS011;35493;50.276;9.372;2023-05-21T13:02:20;9.00;;;6.78;;
49412;SDS011;35493;50.276;9.372;2023-05-21T13:04:52;9.43;;;6.80;;
49412;SDS011;35493;50.276;9.372;2023-05-21T13:07:20;7.97;;;6.28;;
49412;SDS011;35493;50.276;9.372;2023-05-21T13:09:48;9.23;;;6.40;;
49412;SDS011;35493;50.276;9.372;2023-05-21T13:12:17;9.75;;;6.72;;
49412;SDS011;35493;50.276;9.372;2023-05-21T13:14:45;9.20;;;7.10;;
49412;SDS011;35493;50.276;9.372;2023-05-21T13:17:12;11.93;;;9.48;;
49412;SDS011;35493;50.276;9.372;2023-05-21T13:19:39;13.43;;;11.00;;
49412;SDS011;35493;50.276;9.372;2023-05-21T13:22:06;13.82;;;11.00;;
49412;SDS011;35493;50.276;9.372;2023-05-21T13:24:34;15.15;;;10.65;;
49412;SDS011;35493;50.276;9.372;2023-05-21T13:27:03;13.95;;;10.20;;
49412;SDS011;35493;50.276;9.372;2023-05-21T13:29:30;12.32;;;8.98;;
49412;SDS011;35493;50.276;9.372;2023-05-21T13:31:57;10.98;;;8.32;;
49412;SDS011;35493;50.276;9.372;2023-05-21T13:34:23;11.70;;;9.98;;
49412;SDS011;35493;50.276;9.372;2023-05-21T13:36:50;11.18;;;8.85;;
49412;SDS011;35493;50.276;9.372;2023-05-21T13:39:17;13.13;;;10.18;;
49412;SDS011;35493;50.276;9.372;2023-05-21T13:41:50;18.17;;;14.27;;
49412;SDS011;35493;50.276;9.372;2023-05-21T13:44:19;24.30;;;19.88;;
49412;SDS011;35493;50.276;9.372;2023-05-21T13:46:46;25.13;;;20.13;;
49412;SDS011;35493;50.276;9.372;2023-05-21T13:49:13;23.80;;;18.98;;
49412;SDS011;35493;50.276;9.372;2023-05-21T13:51:40;22.85;;;18.90;;
49412;SDS011;35493;50.276;9.372;2023-05-21T13:54:07;22.25;;;16.23;;
49412;SDS011;35493;50.276;9.372;2023-05-21T13:56:34;20.00;;;16.02;;
49412;SDS011;35493;50.276;9.372;2023-05-21T13:59:01;18.70;;;14.70;;
49412;SDS011;35493;50.276;9.372;2023-05-21T14:01:29;18.45;;;14.80;;
49412;SDS011;35493;50.276;9.372;2023-05-21T14:03:56;15.52;;;12.60;;
49412;SDS011;35493;50.276;9.372;2023-05-21T14:06:28;13.45;;;11.35;;
49412;SDS011;35493;50.276;9.372;2023-05-21T14:08:56;13.37;;;9.70;;
49412;SDS011;35493;50.276;9.372;2023-05-21T14:11:23;10.68;;;8.57;;
49412;SDS011;35493;50.276;9.372;2023-05-21T14:13:51;12.90;;;9.70;;
49412;SDS011;35493;50.276;9.372;2023-05-21T14:16:18;15.82;;;10.52;;
49412;SDS011;35493;50.276;9.372;2023-05-21T14:19:02;13.45;;;9.85;;
49412;SDS011;35493;50.276;9.372;2023-05-21T14:21:29;12.17;;;8.97;;
49412;SDS011;35493;50.276;9.372;2023-05-21T14:23:56;11.10;;;8.82;;
49412;SDS011;35493;50.276;9.372;2023-05-21T14:26:24;11.93;;;9.25;;
49412;SDS011;35493;50.276;9.372;2023-05-21T14:28:51;11.30;;;8.93;;
49412;SDS011;35493;50.276;9.372;2023-05-21T14:31:20;10.20;;;8.20;;
49412;SDS011;35493;50.276;9.372;2023-05-21T14:33:52;8.63;;;7.13;;
49412;SDS011;35493;50.276;9.372;2023-05-21T14:36:25;11.80;;;8.80;;
49412;SDS011;35493;50.276;9.372;2023-05-21T14:38:52;11.23;;;8.45;;
49412;SDS011;35493;50.276;9.372;2023-05-21T14:41:19;11.43;;;7.60;;
49412;SDS011;35493;50.276;9.372;2023-05-21T14:43:49;10.30;;;7.40;;
49412;SDS011;35493;50.276;9.372;2023-05-21T14:46:16;10.15;;;7.97;;
49412;SDS011;35493;50.276;9.372;2023-05-21T14:48:43;9.45;;;7.70;;
49412;SDS011;35493;50.276;9.372;2023-05-21T14:51:10;9.77;;;7.55;;
49412;SDS011;35493;50.276;9.372;2023-05-21T14:53:39;8.60;;;6.95;;